sensor_id;sensor_type;location;lat;lon;timestamp;P1;durP1;ratioP1;P2;durP2;ratioP2
70385;SDS011;63206;55.650;37.500;2022-12-29T00:01:18;4.25;;;1.73;;
70385;SDS011;63206;55.650;37.500;2022-12-29T00:03:47;6.03;;;1.90;;
70385;SDS011;63206;55.650;37.500;2022-12-29T00:06:13;4.03;;;1.70;;
70385;SDS011;63206;55.650;37.500;2022-12-29T00:08:39;3.63;;;1.50;;
70385;SDS011;63206;55.650;37.500;2022-12-29T00:11:12;3.22;;;1.23;;
70385;SDS011;63206;55.650;37.500;2022-12-29T00:13:38;2.38;;;1.40;;
70385;SDS011;63206;55.650;37.500;2022-12-29T00:18:48;3.35;;;1.20;;
70385;SDS011;63206;55.650;37.500;2022-12-29T00:21:15;4.53;;;1.60;;
70385;SDS011;63206;55.650;37.500;2022-12-29T00:24:00;6.15;;;1.70;;
70385;SDS011;63206;55.650;37.500;2022-12-29T00:26:45;3.13;;;1.60;;
70385;SDS011;63206;55.650;37.500;2022-12-29T00:29:29;6.93;;;1.70;;
70385;SDS011;63206;55.650;37.500;2022-12-29T00:32:13;6.35;;;1.70;;
70385;SDS011;63206;55.650;37.500;2022-12-29T00:34:58;6.07;;;1.83;;
70385;SDS011;63206;55.650;37.500;2022-12-29T00:37:45;4.80;;;1.85;;
70385;SDS011;63206;55.650;37.500;2022-12-29T00:40:30;3.78;;;1.60;;
70385;SDS011;63206;55.650;37.500;2022-12-29T00:43:15;5.53;;;1.80;;
70385;SDS011;63206;55.650;37.500;2022-12-29T00:45:59;4.22;;;1.80;;
70385;SDS011;63206;55.650;37.500;2022-12-29T00:48:25;7.63;;;2.10;;
70385;SDS011;63206;55.650;37.500;2022-12-29T00:51:09;5.43;;;1.73;;
70385;SDS011;63206;55.650;37.500;2022-12-29T00:53:35;4.10;;;1.63;;
70385;SDS011;63206;55.650;37.500;2022-12-29T00:56:04;4.72;;;1.60;;
70385;SDS011;63206;55.650;37.500;2022-12-29T00:58:30;7.18;;;1.80;;
70385;SDS011;63206;55.650;37.500;2022-12-29T01:01:06;4.63;;;1.70;;
70385;SDS011;63206;55.650;37.500;2022-12-29T01:03:33;4.93;;;1.60;;
70385;SDS011;63206;55.650;37.500;2022-12-29T01:06:05;3.38;;;1.40;;
70385;SDS011;63206;55.650;37.500;2022-12-29T01:08:32;5.13;;;1.80;;
70385;SDS011;63206;55.650;37.500;2022-12-29T01:10:59;5.43;;;1.80;;
70385;SDS011;63206;55.650;37.500;2022-12-29T01:13:27;5.60;;;1.80;;
70385;SDS011;63206;55.650;37.500;2022-12-29T01:15:53;8.23;;;2.30;;
70385;SDS011;63206;55.650;37.500;2022-12-29T01:18:20;6.10;;;1.73;;
70385;SDS011;63206;55.650;37.500;2022-12-29T01:20:46;6.15;;;1.60;;
70385;SDS011;63206;55.650;37.500;2022-12-29T01:23:12;5.13;;;1.40;;
70385;SDS011;63206;55.650;37.500;2022-12-29T01:25:38;9.07;;;2.00;;
70385;SDS011;63206;55.650;37.500;2022-12-29T01:28:04;5.07;;;1.55;;
70385;SDS011;63206;55.650;37.500;2022-12-29T01:30:30;4.07;;;1.77;;
70385;SDS011;63206;55.650;37.500;2022-12-29T01:32:57;5.43;;;1.63;;
70385;SDS011;63206;55.650;37.500;2022-12-29T01:35:23;7.65;;;2.10;;
70385;SDS011;63206;55.650;37.500;2022-12-29T01:37:49;6.35;;;1.67;;
70385;SDS011;63206;55.650;37.500;2022-12-29T01:40:15;6.32;;;2.03;;
70385;SDS011;63206;55.650;37.500;2022-12-29T01:42:41;5.28;;;1.73;;
70385;SDS011;63206;55.650;37.500;2022-12-29T01:45:11;8.82;;;2.08;;
70385;SDS011;63206;55.650;37.500;2022-12-29T01:47:39;5.60;;;1.85;;
70385;SDS011;63206;55.650;37.500;2022-12-29T01:50:08;7.13;;;2.15;;
70385;SDS011;63206;55.650;37.500;2022-12-29T01:52:36;4.72;;;1.92;;
70385;SDS011;63206;55.650;37.500;2022-12-29T01:55:04;5.40;;;1.92;;
70385;SDS011;63206;55.650;37.500;2022-12-29T01:57:34;5.95;;;2.42;;
70385;SDS011;63206;55.650;37.500;2022-12-29T02:00:12;7.35;;;2.10;;
70385;SDS011;63206;55.650;37.500;2022-12-29T02:02:40;9.55;;;2.30;;
70385;SDS011;63206;55.650;37.500;2022-12-29T02:05:11;8.48;;;2.30;;
70385;SDS011;63206;55.650;37.500;2022-12-29T02:07:39;10.23;;;2.15;;
70385;SDS011;63206;55.650;37.500;2022-12-29T02:10:06;6.82;;;2.10;;
70385;SDS011;63206;55.650;37.500;2022-12-29T02:12:33;6.55;;;1.90;;
70385;SDS011;63206;55.650;37.500;2022-12-29T02:14:59;6.90;;;2.00;;
70385;SDS011;63206;55.650;37.500;2022-12-29T02:17:36;6.32;;;2.20;;
70385;SDS011;63206;55.650;37.500;2022-12-29T02:22:47;6.75;;;2.60;;
70385;SDS011;63206;55.650;37.500;2022-12-29T02:25:29;9.43;;;2.40;;
70385;SDS011;63206;55.650;37.500;2022-12-29T02:33:30;9.93;;;2.83;;
70385;SDS011;63206;55.650;37.500;2022-12-29T02:38:18;8.57;;;2.35;;
70385;SDS011;63206;55.650;37.500;2022-12-29T02:40:50;8.82;;;2.67;;
70385;SDS011;63206;55.650;37.500;2022-12-29T02:43:30;9.05;;;2.58;;
70385;SDS011;63206;55.650;37.500;2022-12-29T02:53:47;7.38;;;2.30;;
70385;SDS011;63206;55.650;37.500;2022-12-29T02:56:32;7.85;;;2.20;;
70385;SDS011;63206;55.650;37.500;2022-12-29T02:58:58;10.85;;;2.20;;
70385;SDS011;63206;55.650;37.500;2022-12-29T03:01:28;11.82;;;2.63;;
70385;SDS011;63206;55.650;37.500;2022-12-29T03:06:33;9.35;;;2.83;;
70385;SDS011;63206;55.650;37.500;2022-12-29T03:17:58;6.50;;;2.58;;
70385;SDS011;63206;55.650;37.500;2022-12-29T03:20:06;7.93;;;2.33;;
70385;SDS011;63206;55.650;37.500;2022-12-29T03:22:38;7.63;;;2.05;;
70385;SDS011;63206;55.650;37.500;2022-12-29T03:27:41;8.85;;;2.33;;
70385;SDS011;63206;55.650;37.500;2022-12-29T03:30:08;7.50;;;2.50;;
70385;SDS011;63206;55.650;37.500;2022-12-29T03:32:36;7.15;;;2.22;;
70385;SDS011;63206;55.650;37.500;2022-12-29T03:35:04;8.43;;;2.05;;
70385;SDS011;63206;55.650;37.500;2022-12-29T03:37:31;5.53;;;2.33;;
70385;SDS011;63206;55.650;37.500;2022-12-29T03:40:00;5.97;;;2.30;;
70385;SDS011;63206;55.650;37.500;2022-12-29T03:42:27;7.22;;;2.22;;
70385;SDS011;63206;55.650;37.500;2022-12-29T03:44:57;6.13;;;2.53;;
70385;SDS011;63206;55.650;37.500;2022-12-29T03:47:23;6.82;;;2.45;;
70385;SDS011;63206;55.650;37.500;2022-12-29T03:49:50;11.23;;;2.45;;
70385;SDS011;63206;55.650;37.500;2022-12-29T03:52:16;7.18;;;2.20;;
70385;SDS011;63206;55.650;37.500;2022-12-29T03:54:43;7.53;;;2.38;;
70385;SDS011;63206;55.650;37.500;2022-12-29T03:57:10;7.10;;;2.10;;
70385;SDS011;63206;55.650;37.500;2022-12-29T03:59:59;6.70;;;2.55;;
70385;SDS011;63206;55.650;37.500;2022-12-29T04:02:25;7.68;;;2.10;;
70385;SDS011;63206;55.650;37.500;2022-12-29T04:04:51;11.23;;;3.00;;
70385;SDS011;63206;55.650;37.500;2022-12-29T04:07:17;9.35;;;2.42;;
70385;SDS011;63206;55.650;37.500;2022-12-29T04:09:43;10.02;;;2.60;;
70385;SDS011;63206;55.650;37.500;2022-12-29T04:12:14;5.10;;;2.20;;
70385;SDS011;63206;55.650;37.500;2022-12-29T04:14:41;16.25;;;3.78;;
70385;SDS011;63206;55.650;37.500;2022-12-29T04:17:07;7.40;;;2.25;;
70385;SDS011;63206;55.650;37.500;2022-12-29T04:19:33;5.85;;;2.20;;
70385;SDS011;63206;55.650;37.500;2022-12-29T04:21:59;10.70;;;2.67;;
70385;SDS011;63206;55.650;37.500;2022-12-29T04:24:25;8.25;;;2.40;;
70385;SDS011;63206;55.650;37.500;2022-12-29T04:26:51;7.03;;;2.13;;
70385;SDS011;63206;55.650;37.500;2022-12-29T04:29:28;8.45;;;2.58;;
70385;SDS011;63206;55.650;37.500;2022-12-29T04:32:13;7.28;;;2.33;;
70385;SDS011;63206;55.650;37.500;2022-12-29T04:34:44;10.05;;;2.33;;
70385;SDS011;63206;55.650;37.500;2022-12-29T04:37:11;7.50;;;2.15;;
70385;SDS011;63206;55.650;37.500;2022-12-29T04:39:37;7.68;;;2.03;;
70385;SDS011;63206;55.650;37.500;2022-12-29T04:42:04;7.68;;;2.38;;
70385;SDS011;63206;55.650;37.500;2022-12-29T04:44:31;6.85;;;2.35;;
70385;SDS011;63206;55.650;37.500;2022-12-29T04:47:19;5.55;;;2.15;;
70385;SDS011;63206;55.650;37.500;2022-12-29T04:50:08;6.28;;;2.10;;
70385;SDS011;63206;55.650;37.500;2022-12-29T04:52:42;9.50;;;2.28;;
70385;SDS011;63206;55.650;37.500;2022-12-29T04:55:10;8.32;;;2.47;;
70385;SDS011;63206;55.650;37.500;2022-12-29T04:57:36;9.13;;;2.58;;
70385;SDS011;63206;55.650;37.500;2022-12-29T05:00:02;7.03;;;2.30;;
70385;SDS011;63206;55.650;37.500;2022-12-29T05:02:29;8.18;;;2.40;;
70385;SDS011;63206;55.650;37.500;2022-12-29T05:04:56;8.05;;;2.67;;
70385;SDS011;63206;55.650;37.500;2022-12-29T05:07:22;8.73;;;2.50;;
70385;SDS011;63206;55.650;37.500;2022-12-29T05:09:48;12.60;;;2.55;;
70385;SDS011;63206;55.650;37.500;2022-12-29T05:12:14;10.73;;;2.70;;
70385;SDS011;63206;55.650;37.500;2022-12-29T05:14:52;6.50;;;2.30;;
70385;SDS011;63206;55.650;37.500;2022-12-29T05:17:18;10.40;;;2.90;;
70385;SDS011;63206;55.650;37.500;2022-12-29T05:19:44;9.95;;;2.97;;
70385;SDS011;63206;55.650;37.500;2022-12-29T05:22:11;7.05;;;2.55;;
70385;SDS011;63206;55.650;37.500;2022-12-29T05:24:38;8.48;;;2.47;;
70385;SDS011;63206;55.650;37.500;2022-12-29T05:27:04;8.05;;;2.78;;
70385;SDS011;63206;55.650;37.500;2022-12-29T05:29:44;9.27;;;2.72;;
70385;SDS011;63206;55.650;37.500;2022-12-29T05:32:10;11.35;;;3.13;;
70385;SDS011;63206;55.650;37.500;2022-12-29T05:34:36;11.27;;;3.28;;
70385;SDS011;63206;55.650;37.500;2022-12-29T05:37:02;7.93;;;3.03;;
70385;SDS011;63206;55.650;37.500;2022-12-29T05:39:28;8.10;;;2.90;;
70385;SDS011;63206;55.650;37.500;2022-12-29T05:41:58;12.35;;;3.60;;
70385;SDS011;63206;55.650;37.500;2022-12-29T05:44:32;8.68;;;3.03;;
70385;SDS011;63206;55.650;37.500;2022-12-29T05:47:33;8.10;;;2.90;;
70385;SDS011;63206;55.650;37.500;2022-12-29T05:50:29;10.38;;;3.10;;
70385;SDS011;63206;55.650;37.500;2022-12-29T05:53:11;10.60;;;3.13;;
70385;SDS011;63206;55.650;37.500;2022-12-29T05:55:37;10.93;;;3.25;;
70385;SDS011;63206;55.650;37.500;2022-12-29T05:58:04;7.63;;;3.15;;
70385;SDS011;63206;55.650;37.500;2022-12-29T06:00:30;9.63;;;3.00;;
70385;SDS011;63206;55.650;37.500;2022-12-29T06:02:57;8.57;;;3.30;;
70385;SDS011;63206;55.650;37.500;2022-12-29T06:05:23;12.43;;;3.28;;
70385;SDS011;63206;55.650;37.500;2022-12-29T06:07:49;8.88;;;3.20;;
70385;SDS011;63206;55.650;37.500;2022-12-29T06:10:16;9.52;;;3.22;;
70385;SDS011;63206;55.650;37.500;2022-12-29T06:13:02;7.90;;;3.00;;
70385;SDS011;63206;55.650;37.500;2022-12-29T06:15:31;7.60;;;2.97;;
70385;SDS011;63206;55.650;37.500;2022-12-29T06:17:57;10.07;;;3.22;;
70385;SDS011;63206;55.650;37.500;2022-12-29T06:20:23;7.70;;;3.15;;
70385;SDS011;63206;55.650;37.500;2022-12-29T06:22:49;9.15;;;3.45;;
70385;SDS011;63206;55.650;37.500;2022-12-29T06:25:15;11.70;;;3.33;;
70385;SDS011;63206;55.650;37.500;2022-12-29T06:27:43;6.85;;;2.75;;
70385;SDS011;63206;55.650;37.500;2022-12-29T06:30:09;9.45;;;3.38;;
70385;SDS011;63206;55.650;37.500;2022-12-29T06:32:37;11.43;;;4.18;;
70385;SDS011;63206;55.650;37.500;2022-12-29T06:35:05;9.27;;;3.38;;
70385;SDS011;63206;55.650;37.500;2022-12-29T06:37:39;10.88;;;3.65;;
70385;SDS011;63206;55.650;37.500;2022-12-29T06:40:06;11.25;;;3.55;;
70385;SDS011;63206;55.650;37.500;2022-12-29T06:42:46;9.05;;;3.40;;
70385;SDS011;63206;55.650;37.500;2022-12-29T06:45:28;9.75;;;3.33;;
70385;SDS011;63206;55.650;37.500;2022-12-29T06:47:54;9.93;;;3.65;;
70385;SDS011;63206;55.650;37.500;2022-12-29T06:50:20;10.75;;;3.83;;
70385;SDS011;63206;55.650;37.500;2022-12-29T06:52:46;10.85;;;3.53;;
70385;SDS011;63206;55.650;37.500;2022-12-29T06:55:11;10.55;;;3.70;;
70385;SDS011;63206;55.650;37.500;2022-12-29T06:57:38;11.18;;;4.00;;
70385;SDS011;63206;55.650;37.500;2022-12-29T07:00:04;10.27;;;3.90;;
70385;SDS011;63206;55.650;37.500;2022-12-29T07:02:30;10.82;;;3.75;;
70385;SDS011;63206;55.650;37.500;2022-12-29T07:04:56;11.45;;;3.47;;
70385;SDS011;63206;55.650;37.500;2022-12-29T07:07:22;10.98;;;3.50;;
70385;SDS011;63206;55.650;37.500;2022-12-29T07:09:48;13.32;;;3.97;;
70385;SDS011;63206;55.650;37.500;2022-12-29T07:12:14;9.18;;;3.80;;
70385;SDS011;63206;55.650;37.500;2022-12-29T07:14:40;10.02;;;3.40;;
70385;SDS011;63206;55.650;37.500;2022-12-29T07:17:06;11.00;;;3.42;;
70385;SDS011;63206;55.650;37.500;2022-12-29T07:19:32;9.77;;;3.47;;
70385;SDS011;63206;55.650;37.500;2022-12-29T07:21:58;12.10;;;3.65;;
70385;SDS011;63206;55.650;37.500;2022-12-29T07:24:24;10.18;;;3.67;;
70385;SDS011;63206;55.650;37.500;2022-12-29T07:26:53;9.18;;;3.17;;
70385;SDS011;63206;55.650;37.500;2022-12-29T07:29:19;9.80;;;4.03;;
70385;SDS011;63206;55.650;37.500;2022-12-29T07:31:45;11.98;;;3.95;;
70385;SDS011;63206;55.650;37.500;2022-12-29T07:34:11;13.88;;;3.83;;
70385;SDS011;63206;55.650;37.500;2022-12-29T07:36:37;11.05;;;4.15;;
70385;SDS011;63206;55.650;37.500;2022-12-29T07:39:04;11.27;;;3.58;;
70385;SDS011;63206;55.650;37.500;2022-12-29T07:41:30;12.45;;;4.47;;
70385;SDS011;63206;55.650;37.500;2022-12-29T07:43:57;12.90;;;4.18;;
70385;SDS011;63206;55.650;37.500;2022-12-29T07:46:49;13.88;;;4.97;;
70385;SDS011;63206;55.650;37.500;2022-12-29T07:49:15;14.90;;;5.63;;
70385;SDS011;63206;55.650;37.500;2022-12-29T07:51:41;14.00;;;6.00;;
70385;SDS011;63206;55.650;37.500;2022-12-29T07:54:08;16.48;;;5.32;;
70385;SDS011;63206;55.650;37.500;2022-12-29T07:56:34;18.27;;;6.60;;
70385;SDS011;63206;55.650;37.500;2022-12-29T07:59:00;15.95;;;5.95;;
70385;SDS011;63206;55.650;37.500;2022-12-29T08:01:26;16.45;;;6.85;;
70385;SDS011;63206;55.650;37.500;2022-12-29T08:03:52;24.92;;;6.47;;
70385;SDS011;63206;55.650;37.500;2022-12-29T08:06:18;16.95;;;6.95;;
70385;SDS011;63206;55.650;37.500;2022-12-29T08:08:45;16.35;;;6.20;;
70385;SDS011;63206;55.650;37.500;2022-12-29T08:11:11;15.75;;;6.68;;
70385;SDS011;63206;55.650;37.500;2022-12-29T08:13:37;17.63;;;7.63;;
70385;SDS011;63206;55.650;37.500;2022-12-29T08:16:03;21.17;;;7.43;;
70385;SDS011;63206;55.650;37.500;2022-12-29T08:18:29;18.90;;;7.13;;
70385;SDS011;63206;55.650;37.500;2022-12-29T08:20:55;16.60;;;7.00;;
70385;SDS011;63206;55.650;37.500;2022-12-29T08:23:21;15.75;;;5.90;;
70385;SDS011;63206;55.650;37.500;2022-12-29T08:25:55;13.95;;;5.75;;
70385;SDS011;63206;55.650;37.500;2022-12-29T08:28:22;16.67;;;5.70;;
70385;SDS011;63206;55.650;37.500;2022-12-29T08:30:48;13.98;;;5.25;;
70385;SDS011;63206;55.650;37.500;2022-12-29T08:33:13;15.15;;;5.53;;
70385;SDS011;63206;55.650;37.500;2022-12-29T08:35:39;14.15;;;4.55;;
70385;SDS011;63206;55.650;37.500;2022-12-29T08:38:05;13.02;;;4.70;;
70385;SDS011;63206;55.650;37.500;2022-12-29T08:40:31;11.48;;;4.28;;
70385;SDS011;63206;55.650;37.500;2022-12-29T08:42:57;12.80;;;4.03;;
70385;SDS011;63206;55.650;37.500;2022-12-29T08:45:23;12.85;;;4.40;;
70385;SDS011;63206;55.650;37.500;2022-12-29T08:47:51;11.98;;;4.50;;
70385;SDS011;63206;55.650;37.500;2022-12-29T08:50:17;13.60;;;4.63;;
70385;SDS011;63206;55.650;37.500;2022-12-29T08:52:46;13.00;;;3.88;;
70385;SDS011;63206;55.650;37.500;2022-12-29T08:55:12;9.50;;;4.00;;
70385;SDS011;63206;55.650;37.500;2022-12-29T08:57:38;12.18;;;4.50;;
70385;SDS011;63206;55.650;37.500;2022-12-29T09:00:10;11.25;;;4.40;;
70385;SDS011;63206;55.650;37.500;2022-12-29T09:02:36;12.13;;;4.93;;
70385;SDS011;63206;55.650;37.500;2022-12-29T09:05:02;10.27;;;4.45;;
70385;SDS011;63206;55.650;37.500;2022-12-29T09:07:29;12.95;;;5.03;;
70385;SDS011;63206;55.650;37.500;2022-12-29T09:09:54;15.88;;;5.15;;
70385;SDS011;63206;55.650;37.500;2022-12-29T09:12:20;15.55;;;4.90;;
70385;SDS011;63206;55.650;37.500;2022-12-29T09:14:46;11.80;;;5.07;;
70385;SDS011;63206;55.650;37.500;2022-12-29T09:17:12;13.43;;;4.80;;
70385;SDS011;63206;55.650;37.500;2022-12-29T09:19:57;13.02;;;4.35;;
70385;SDS011;63206;55.650;37.500;2022-12-29T09:22:23;12.43;;;4.30;;
70385;SDS011;63206;55.650;37.500;2022-12-29T09:24:49;11.65;;;3.95;;
70385;SDS011;63206;55.650;37.500;2022-12-29T09:27:15;10.07;;;4.03;;
70385;SDS011;63206;55.650;37.500;2022-12-29T09:29:41;10.18;;;4.28;;
70385;SDS011;63206;55.650;37.500;2022-12-29T09:32:07;11.40;;;4.13;;
70385;SDS011;63206;55.650;37.500;2022-12-29T09:34:33;13.88;;;4.45;;
70385;SDS011;63206;55.650;37.500;2022-12-29T09:36:59;13.05;;;4.63;;
70385;SDS011;63206;55.650;37.500;2022-12-29T09:39:27;13.50;;;4.25;;
70385;SDS011;63206;55.650;37.500;2022-12-29T09:45:15;11.40;;;4.40;;
70385;SDS011;63206;55.650;37.500;2022-12-29T09:47:15;13.57;;;4.63;;
70385;SDS011;63206;55.650;37.500;2022-12-29T09:55:03;13.13;;;4.97;;
70385;SDS011;63206;55.650;37.500;2022-12-29T09:57:32;12.10;;;5.28;;
70385;SDS011;63206;55.650;37.500;2022-12-29T10:00:01;12.35;;;4.60;;
70385;SDS011;63206;55.650;37.500;2022-12-29T10:02:39;13.55;;;4.60;;
70385;SDS011;63206;55.650;37.500;2022-12-29T10:05:29;13.48;;;5.30;;
70385;SDS011;63206;55.650;37.500;2022-12-29T10:08:15;12.43;;;4.88;;
70385;SDS011;63206;55.650;37.500;2022-12-29T10:10:43;11.32;;;4.72;;
70385;SDS011;63206;55.650;37.500;2022-12-29T10:16:05;12.38;;;5.07;;
70385;SDS011;63206;55.650;37.500;2022-12-29T10:21:05;12.75;;;4.38;;
70385;SDS011;63206;55.650;37.500;2022-12-29T10:23:46;12.57;;;4.47;;
70385;SDS011;63206;55.650;37.500;2022-12-29T10:26:17;14.75;;;4.78;;
70385;SDS011;63206;55.650;37.500;2022-12-29T10:28:59;12.52;;;3.80;;
70385;SDS011;63206;55.650;37.500;2022-12-29T10:31:34;10.38;;;3.85;;
70385;SDS011;63206;55.650;37.500;2022-12-29T10:34:12;12.30;;;4.05;;
70385;SDS011;63206;55.650;37.500;2022-12-29T10:36:51;12.13;;;4.13;;
70385;SDS011;63206;55.650;37.500;2022-12-29T10:39:37;11.95;;;3.97;;
70385;SDS011;63206;55.650;37.500;2022-12-29T10:42:13;10.50;;;3.80;;
70385;SDS011;63206;55.650;37.500;2022-12-29T10:44:49;8.32;;;3.60;;
70385;SDS011;63206;55.650;37.500;2022-12-29T10:47:22;9.50;;;3.70;;
70385;SDS011;63206;55.650;37.500;2022-12-29T10:49:55;10.55;;;3.97;;
70385;SDS011;63206;55.650;37.500;2022-12-29T10:52:27;9.45;;;3.85;;
70385;SDS011;63206;55.650;37.500;2022-12-29T10:55:00;11.82;;;3.70;;
70385;SDS011;63206;55.650;37.500;2022-12-29T10:57:32;9.68;;;3.88;;
70385;SDS011;63206;55.650;37.500;2022-12-29T10:59:58;9.70;;;3.83;;
70385;SDS011;63206;55.650;37.500;2022-12-29T11:07:27;13.30;;;4.43;;
70385;SDS011;63206;55.650;37.500;2022-12-29T11:09:54;10.52;;;4.32;;
70385;SDS011;63206;55.650;37.500;2022-12-29T11:12:21;11.57;;;4.38;;
70385;SDS011;63206;55.650;37.500;2022-12-29T11:14:49;11.85;;;5.13;;
70385;SDS011;63206;55.650;37.500;2022-12-29T11:17:29;13.38;;;5.10;;
70385;SDS011;63206;55.650;37.500;2022-12-29T11:19:55;16.30;;;5.50;;
70385;SDS011;63206;55.650;37.500;2022-12-29T11:22:22;15.07;;;5.57;;
70385;SDS011;63206;55.650;37.500;2022-12-29T11:24:51;14.85;;;4.72;;
70385;SDS011;63206;55.650;37.500;2022-12-29T11:27:22;16.83;;;5.65;;
70385;SDS011;63206;55.650;37.500;2022-12-29T11:29:49;13.15;;;4.90;;
70385;SDS011;63206;55.650;37.500;2022-12-29T11:32:20;12.18;;;4.88;;
70385;SDS011;63206;55.650;37.500;2022-12-29T11:34:46;12.25;;;4.82;;
70385;SDS011;63206;55.650;37.500;2022-12-29T11:37:31;12.88;;;5.45;;
70385;SDS011;63206;55.650;37.500;2022-12-29T11:40:15;14.88;;;5.55;;
70385;SDS011;63206;55.650;37.500;2022-12-29T11:45:24;14.43;;;5.35;;
70385;SDS011;63206;55.650;37.500;2022-12-29T11:50:21;13.88;;;4.95;;
70385;SDS011;63206;55.650;37.500;2022-12-29T11:52:48;14.35;;;5.00;;
70385;SDS011;63206;55.650;37.500;2022-12-29T11:55:21;13.45;;;5.05;;
70385;SDS011;63206;55.650;37.500;2022-12-29T11:57:49;16.35;;;5.93;;
70385;SDS011;63206;55.650;37.500;2022-12-29T12:00:16;14.65;;;5.68;;
70385;SDS011;63206;55.650;37.500;2022-12-29T12:02:56;13.60;;;5.10;;
70385;SDS011;63206;55.650;37.500;2022-12-29T12:11:06;14.13;;;4.88;;
70385;SDS011;63206;55.650;37.500;2022-12-29T12:13:43;15.50;;;5.70;;
70385;SDS011;63206;55.650;37.500;2022-12-29T12:16:15;15.52;;;5.00;;
70385;SDS011;63206;55.650;37.500;2022-12-29T12:18:45;14.80;;;5.32;;
70385;SDS011;63206;55.650;37.500;2022-12-29T12:21:24;14.90;;;5.75;;
70385;SDS011;63206;55.650;37.500;2022-12-29T12:24:00;17.85;;;5.35;;
70385;SDS011;63206;55.650;37.500;2022-12-29T12:29:19;16.17;;;6.00;;
70385;SDS011;63206;55.650;37.500;2022-12-29T12:31:56;16.85;;;5.65;;
70385;SDS011;63206;55.650;37.500;2022-12-29T12:34:35;15.25;;;5.30;;
70385;SDS011;63206;55.650;37.500;2022-12-29T12:39:42;16.95;;;6.15;;
70385;SDS011;63206;55.650;37.500;2022-12-29T12:42:20;14.95;;;5.63;;
70385;SDS011;63206;55.650;37.500;2022-12-29T13:11:30;20.65;;;7.45;;
70385;SDS011;63206;55.650;37.500;2022-12-29T13:22:01;20.70;;;6.88;;
70385;SDS011;63206;55.650;37.500;2022-12-29T13:29:40;25.77;;;7.20;;
70385;SDS011;63206;55.650;37.500;2022-12-29T13:35:03;22.33;;;7.53;;
70385;SDS011;63206;55.650;37.500;2022-12-29T13:37:25;21.10;;;6.68;;
70385;SDS011;63206;55.650;37.500;2022-12-29T13:39:54;24.80;;;7.03;;
70385;SDS011;63206;55.650;37.500;2022-12-29T13:42:21;23.02;;;7.28;;
70385;SDS011;63206;55.650;37.500;2022-12-29T13:44:57;24.30;;;8.13;;
70385;SDS011;63206;55.650;37.500;2022-12-29T13:49:56;29.08;;;8.23;;
70385;SDS011;63206;55.650;37.500;2022-12-29T14:00:13;23.33;;;7.50;;
70385;SDS011;63206;55.650;37.500;2022-12-29T14:07:49;23.98;;;7.55;;
70385;SDS011;63206;55.650;37.500;2022-12-29T14:13:10;26.38;;;8.88;;
70385;SDS011;63206;55.650;37.500;2022-12-29T14:15:42;26.02;;;8.27;;
70385;SDS011;63206;55.650;37.500;2022-12-29T14:18:18;25.20;;;8.10;;
70385;SDS011;63206;55.650;37.500;2022-12-29T14:20:52;25.17;;;8.98;;
70385;SDS011;63206;55.650;37.500;2022-12-29T14:28:32;27.92;;;9.23;;
70385;SDS011;63206;55.650;37.500;2022-12-29T14:31:02;31.00;;;10.13;;
70385;SDS011;63206;55.650;37.500;2022-12-29T14:33:30;29.67;;;9.25;;
70385;SDS011;63206;55.650;37.500;2022-12-29T14:36:21;28.42;;;8.90;;
70385;SDS011;63206;55.650;37.500;2022-12-29T14:38:56;27.70;;;9.32;;
70385;SDS011;63206;55.650;37.500;2022-12-29T14:41:35;26.95;;;9.50;;
70385;SDS011;63206;55.650;37.500;2022-12-29T14:49:16;29.58;;;9.27;;
70385;SDS011;63206;55.650;37.500;2022-12-29T14:51:43;27.40;;;10.07;;
70385;SDS011;63206;55.650;37.500;2022-12-29T14:57:00;26.85;;;9.48;;
70385;SDS011;63206;55.650;37.500;2022-12-29T14:59:31;31.95;;;9.90;;
70385;SDS011;63206;55.650;37.500;2022-12-29T15:01:58;31.23;;;9.00;;
70385;SDS011;63206;55.650;37.500;2022-12-29T15:04:31;30.70;;;9.73;;
70385;SDS011;63206;55.650;37.500;2022-12-29T15:07:02;30.63;;;9.82;;
70385;SDS011;63206;55.650;37.500;2022-12-29T15:09:36;27.83;;;8.98;;
70385;SDS011;63206;55.650;37.500;2022-12-29T15:15:10;29.05;;;9.60;;
70385;SDS011;63206;55.650;37.500;2022-12-29T15:17:45;27.90;;;9.70;;
70385;SDS011;63206;55.650;37.500;2022-12-29T15:22:47;29.88;;;9.25;;
70385;SDS011;63206;55.650;37.500;2022-12-29T15:25:14;30.73;;;9.32;;
70385;SDS011;63206;55.650;37.500;2022-12-29T15:27:51;29.90;;;9.10;;
70385;SDS011;63206;55.650;37.500;2022-12-29T15:30:17;29.80;;;9.60;;
70385;SDS011;63206;55.650;37.500;2022-12-29T15:32:43;32.58;;;10.27;;
70385;SDS011;63206;55.650;37.500;2022-12-29T15:37:53;29.20;;;10.43;;
70385;SDS011;63206;55.650;37.500;2022-12-29T15:40:23;32.78;;;10.27;;
70385;SDS011;63206;55.650;37.500;2022-12-29T15:42:52;30.40;;;9.75;;
70385;SDS011;63206;55.650;37.500;2022-12-29T15:45:30;31.05;;;9.45;;
70385;SDS011;63206;55.650;37.500;2022-12-29T15:48:00;35.38;;;10.43;;
70385;SDS011;63206;55.650;37.500;2022-12-29T15:50:27;31.77;;;10.70;;
70385;SDS011;63206;55.650;37.500;2022-12-29T15:52:53;30.15;;;10.95;;
70385;SDS011;63206;55.650;37.500;2022-12-29T15:57:48;32.33;;;10.85;;
70385;SDS011;63206;55.650;37.500;2022-12-29T16:00:21;37.20;;;11.50;;
70385;SDS011;63206;55.650;37.500;2022-12-29T16:02:48;34.17;;;10.40;;
70385;SDS011;63206;55.650;37.500;2022-12-29T16:05:17;39.35;;;11.73;;
70385;SDS011;63206;55.650;37.500;2022-12-29T16:07:54;39.58;;;11.30;;
70385;SDS011;63206;55.650;37.500;2022-12-29T16:10:31;36.47;;;12.50;;
70385;SDS011;63206;55.650;37.500;2022-12-29T16:13:03;30.23;;;10.85;;
70385;SDS011;63206;55.650;37.500;2022-12-29T16:15:29;39.63;;;11.20;;
70385;SDS011;63206;55.650;37.500;2022-12-29T16:17:55;37.97;;;11.50;;
70385;SDS011;63206;55.650;37.500;2022-12-29T16:20:23;36.33;;;12.27;;
70385;SDS011;63206;55.650;37.500;2022-12-29T16:22:56;35.35;;;12.23;;
70385;SDS011;63206;55.650;37.500;2022-12-29T16:25:30;35.67;;;12.38;;
70385;SDS011;63206;55.650;37.500;2022-12-29T16:27:58;39.00;;;10.45;;
70385;SDS011;63206;55.650;37.500;2022-12-29T16:30:26;38.03;;;11.00;;
70385;SDS011;63206;55.650;37.500;2022-12-29T16:32:56;34.03;;;11.75;;
70385;SDS011;63206;55.650;37.500;2022-12-29T16:35:23;42.60;;;12.70;;
70385;SDS011;63206;55.650;37.500;2022-12-29T16:40:38;36.35;;;12.68;;
70385;SDS011;63206;55.650;37.500;2022-12-29T16:43:19;37.38;;;12.27;;
70385;SDS011;63206;55.650;37.500;2022-12-29T16:48:19;38.92;;;10.57;;
70385;SDS011;63206;55.650;37.500;2022-12-29T16:50:50;34.60;;;10.95;;
70385;SDS011;63206;55.650;37.500;2022-12-29T16:53:29;37.70;;;11.52;;
70385;SDS011;63206;55.650;37.500;2022-12-29T16:56:04;38.97;;;11.70;;
70385;SDS011;63206;55.650;37.500;2022-12-29T16:58:34;33.10;;;11.00;;
70385;SDS011;63206;55.650;37.500;2022-12-29T17:01:03;35.92;;;11.32;;
70385;SDS011;63206;55.650;37.500;2022-12-29T17:03:41;35.15;;;11.55;;
70385;SDS011;63206;55.650;37.500;2022-12-29T17:06:10;37.10;;;11.23;;
70385;SDS011;63206;55.650;37.500;2022-12-29T17:08:43;43.65;;;12.45;;
70385;SDS011;63206;55.650;37.500;2022-12-29T17:11:20;37.85;;;11.75;;
70385;SDS011;63206;55.650;37.500;2022-12-29T17:14:30;40.95;;;11.27;;
70385;SDS011;63206;55.650;37.500;2022-12-29T17:16:57;42.83;;;12.30;;
70385;SDS011;63206;55.650;37.500;2022-12-29T17:19:32;37.47;;;11.77;;
70385;SDS011;63206;55.650;37.500;2022-12-29T17:21:59;37.30;;;10.18;;
70385;SDS011;63206;55.650;37.500;2022-12-29T17:24:25;36.17;;;10.90;;